createdAt,value
2023-03-08T00:00:52.342Z,90.6
2023-03-08T00:02:07.562Z,90.8
2023-03-08T00:03:22.772Z,90.9
2023-03-08T00:04:37.994Z,90.7
2023-03-08T00:05:53.204Z,90.7
2023-03-08T00:07:09.398Z,90.9
2023-03-08T00:08:25.592Z,90.7
2023-03-08T00:09:41.786Z,90.6
2023-03-08T00:10:49.000Z,90.7
2023-03-08T00:12:14.428Z,90.8
2023-03-08T00:13:30.616Z,91.1
2023-03-08T00:14:46.819Z,90.8
2023-03-08T00:16:02.755Z,90.9
2023-03-08T00:17:18.949Z,90.8
2023-03-08T00:18:35.143Z,90.5
2023-03-08T00:19:51.337Z,90.5
2023-03-08T00:21:07.531Z,90.5
2023-03-08T00:22:14.000Z,90.2
2023-03-08T00:23:30.000Z,90.2
2023-03-08T00:24:55.130Z,90.1
2023-03-08T00:26:11.324Z,90.3
2023-03-08T00:27:18.000Z,90.1
2023-03-08T00:28:43.712Z,90
2023-03-08T00:29:59.905Z,90.1
2023-03-08T00:31:16.099Z,90.1
2023-03-08T00:32:32.293Z,90.1
2023-03-08T00:33:48.487Z,90.1
2023-03-08T00:35:04.926Z,90.2
2023-03-08T00:36:11.000Z,90
2023-03-08T00:37:35.113Z,89.9
2023-03-08T00:38:51.306Z,90.1
2023-03-08T00:39:57.000Z,90
2023-03-08T00:41:21.737Z,90
2023-03-08T00:42:37.931Z,90
2023-03-08T00:43:54.125Z,90
2023-03-08T00:45:10.319Z,90
2023-03-08T00:46:26.513Z,90.1
2023-03-08T00:47:42.707Z,89.8
2023-03-08T00:48:59.146Z,89.8
2023-03-08T00:50:15.096Z,89.8
2023-03-08T00:51:31.290Z,89.8
2023-03-08T00:52:47.484Z,89.9
2023-03-08T00:54:03.678Z,89.8
2023-03-08T00:55:19.871Z,89.9
2023-03-08T00:56:36.065Z,89.8
2023-03-08T00:57:51.276Z,89.9
2023-03-08T00:59:04.000Z,89.8
2023-03-08T01:00:23.663Z,89.8
2023-03-08T01:01:40.112Z,90
2023-03-08T01:02:56.051Z,89.9
2023-03-08T01:04:12.245Z,90.1
2023-03-08T01:05:28.439Z,89.8
2023-03-08T01:06:43.659Z,89.7
2023-03-08T01:07:59.115Z,89.8
2023-03-08T01:09:15.063Z,89.8
2023-03-08T01:10:30.284Z,89.8
2023-03-08T01:11:45.494Z,89.9
2023-03-08T01:13:01.688Z,90
2023-03-08T01:14:09.000Z,90.1
2023-03-08T01:15:34.076Z,90.2
2023-03-08T01:16:50.270Z,90.2
2023-03-08T01:18:06.464Z,90.1
2023-03-08T01:19:22.658Z,90.1
2023-03-08T01:20:39.110Z,90.1
2023-03-08T01:21:55.046Z,89.9
2023-03-08T01:23:11.239Z,89.9
2023-03-08T01:24:27.434Z,90
2023-03-08T01:25:43.627Z,90.1
2023-03-08T01:26:59.821Z,90.1
2023-03-08T01:28:15.032Z,90
2023-03-08T01:29:31.225Z,89.9
2023-03-08T01:30:47.419Z,89.7
2023-03-08T01:32:03.613Z,89.8
2023-03-08T01:33:19.807Z,90
2023-03-08T01:34:36.001Z,90
2023-03-08T01:35:52.195Z,90.1
2023-03-08T01:37:08.389Z,90.1
2023-03-08T01:38:24.584Z,90
2023-03-08T01:39:32.000Z,89.9
2023-03-08T01:40:56.972Z,89.7
2023-03-08T01:42:13.166Z,89.7
2023-03-08T01:43:29.359Z,89.9
2023-03-08T01:44:44.569Z,89.9
2023-03-08T01:46:00.763Z,90.1
2023-03-08T01:47:16.958Z,89.8
2023-03-08T01:48:24.000Z,89.6
2023-03-08T01:49:49.345Z,89.8
2023-03-08T01:51:05.539Z,89.8
2023-03-08T01:52:13.000Z,89.8
2023-03-08T01:53:37.927Z,89.8
2023-03-08T01:54:45.000Z,89.5
2023-03-08T01:57:25.535Z,89.8
2023-03-08T01:58:40.746Z,89.4
2023-03-08T01:59:55.966Z,89.3
2023-03-08T02:01:11.177Z,89
2023-03-08T02:02:27.370Z,89.1
2023-03-08T02:03:43.564Z,89.3
2023-03-08T02:04:51.000Z,89.3
2023-03-08T02:06:15.954Z,89.4
2023-03-08T02:07:32.148Z,89.6
2023-03-08T02:08:48.344Z,89.6
2023-03-08T02:10:04.538Z,89.7
2023-03-08T02:11:20.733Z,89.7
2023-03-08T02:12:36.928Z,89.6
2023-03-08T02:13:53.123Z,89.5
2023-03-08T02:15:09.319Z,89.5
2023-03-08T02:16:25.514Z,89.7
2023-03-08T02:17:32.000Z,89.5
2023-03-08T02:18:55.943Z,89.5
2023-03-08T02:20:12.138Z,89.5
2023-03-08T02:21:28.584Z,89.4
2023-03-08T02:22:44.528Z,89.6
2023-03-08T02:24:00.725Z,89.7
2023-03-08T02:25:16.919Z,89.8
2023-03-08T02:26:32.141Z,89.4
2023-03-08T02:27:47.353Z,89.3
2023-03-08T02:29:02.576Z,89.3
2023-03-08T02:30:09.000Z,89.3
2023-03-08T02:31:33.983Z,89.3
2023-03-08T02:32:50.179Z,89.3
2023-03-08T02:33:57.000Z,89.2
2023-03-08T02:35:22.570Z,89.2
2023-03-08T02:36:30.000Z,89.2
2023-03-08T02:37:54.962Z,89.3
2023-03-08T02:39:11.158Z,89.4
2023-03-08T02:40:24.000Z,89.6
2023-03-08T02:41:34.000Z,89.5
2023-03-08T02:42:51.000Z,89.4
2023-03-08T02:44:15.942Z,89.4
2023-03-08T02:45:32.137Z,89.1
2023-03-08T02:46:47.350Z,89.3
2023-03-08T02:48:03.544Z,89.3
2023-03-08T02:49:19.741Z,89.3
2023-03-08T02:50:35.936Z,89.4
2023-03-08T02:51:52.132Z,89.4
2023-03-08T02:53:08.328Z,89.3
2023-03-08T02:54:24.524Z,89.2
2023-03-08T02:55:31.000Z,89.2
2023-03-08T02:56:54.958Z,89.1
2023-03-08T02:58:10.180Z,89.1
2023-03-08T02:59:25.635Z,89.2
2023-03-08T03:00:41.587Z,89.1
2023-03-08T03:01:57.783Z,89
2023-03-08T03:03:13.979Z,88.8
2023-03-08T03:04:30.175Z,88.8
2023-03-08T03:05:46.371Z,89
2023-03-08T03:07:02.807Z,89.1
2023-03-08T03:08:10.000Z,89.2
2023-03-08T03:09:34.959Z,89.3
2023-03-08T03:10:42.000Z,89.4
2023-03-08T03:12:07.600Z,89.3
2023-03-08T03:13:23.546Z,89.1
2023-03-08T03:14:39.988Z,89.1
2023-03-08T03:15:54.954Z,89.2
2023-03-08T03:17:11.397Z,89.1
2023-03-08T03:18:27.345Z,89.2
2023-03-08T03:19:43.541Z,89
2023-03-08T03:20:51.000Z,89.1
2023-03-08T03:22:15.933Z,89.3
2023-03-08T03:23:32.129Z,89.3
2023-03-08T03:24:47.351Z,89.2
2023-03-08T03:26:02.562Z,89.2
2023-03-08T03:27:17.785Z,89.4
2023-03-08T03:28:32.997Z,89.3
2023-03-08T03:29:49.193Z,89.2
2023-03-08T03:31:05.389Z,89.4
2023-03-08T03:32:21.585Z,89.4
2023-03-08T03:33:38.023Z,89.5
2023-03-08T03:34:53.977Z,89.5
2023-03-08T03:36:10.172Z,89.2
2023-03-08T03:37:26.624Z,89.2
2023-03-08T03:38:42.564Z,89.3
2023-03-08T03:39:58.760Z,89.4
2023-03-08T03:41:15.202Z,89.4
2023-03-08T03:42:31.152Z,89.5
2023-03-08T03:43:47.598Z,89.5
2023-03-08T03:45:02.560Z,89.4
2023-03-08T03:46:10.000Z,89.3
2023-03-08T03:47:34.951Z,89.4
2023-03-08T03:48:51.147Z,89.4
2023-03-08T03:50:07.343Z,89.3
2023-03-08T03:51:23.538Z,89.2
2023-03-08T03:52:39.735Z,89.4
2023-03-08T03:53:54.956Z,89.5
2023-03-08T03:55:10.169Z,89.5
2023-03-08T03:56:26.364Z,89.3
2023-03-08T03:57:32.000Z,89.4
2023-03-08T03:58:56.797Z,89.3
2023-03-08T04:00:12.994Z,89.5
2023-03-08T04:01:29.190Z,89.4
2023-03-08T04:02:45.386Z,89.2
2023-03-08T04:03:52.000Z,89.3
2023-03-08T04:05:17.778Z,89.3
2023-03-08T04:06:33.973Z,89.3
2023-03-08T04:07:50.419Z,89.2
2023-03-08T04:09:06.365Z,89.3
2023-03-08T04:10:22.561Z,89.3
2023-03-08T04:11:39.009Z,89.3
2023-03-08T04:12:54.953Z,89
2023-03-08T04:14:11.149Z,89
2023-03-08T04:15:26.609Z,89.1
2023-03-08T04:16:33.000Z,89
2023-03-08T04:17:50.000Z,88.8
2023-03-08T04:19:06.000Z,89.2
2023-03-08T04:20:31.144Z,89
2023-03-08T04:21:47.340Z,89.1
2023-03-08T04:22:54.000Z,89.5
2023-03-08T04:24:19.732Z,89.4
2023-03-08T04:25:34.954Z,89.5
2023-03-08T04:26:50.166Z,89.5
2023-03-08T04:28:05.388Z,89.4
2023-03-08T04:29:20.600Z,89.6
2023-03-08T04:30:36.797Z,89.5
2023-03-08T04:31:52.992Z,89.4
2023-03-08T04:33:09.189Z,89.6
2023-03-08T04:34:25.384Z,89.6
2023-03-08T04:35:41.580Z,89.8
2023-03-08T04:36:25.000Z,89.7
2023-03-08T04:36:49.000Z,89.9
2023-03-08T04:38:13.972Z,89.8
2023-03-08T04:39:30.168Z,89.7
2023-03-08T04:40:46.364Z,89.7
2023-03-08T04:43:18.757Z,89.7
2023-03-08T04:44:34.952Z,89.6
2023-03-08T04:45:50.164Z,89.6
2023-03-08T04:47:06.359Z,89.8
2023-03-08T04:48:22.556Z,89.8
2023-03-08T04:49:39.003Z,89.9
2023-03-08T04:50:54.948Z,89.9
2023-03-08T04:52:11.143Z,90
2023-03-08T04:53:27.587Z,90.1
2023-03-08T04:54:42.561Z,89.8
2023-03-08T04:55:57.773Z,89.9
2023-03-08T04:57:13.968Z,89.8
2023-03-08T04:58:29.441Z,89.9
2023-03-08T04:59:44.402Z,90.1
2023-03-08T05:01:00.853Z,90.3
2023-03-08T05:02:08.000Z,90.3
2023-03-08T05:03:32.991Z,90.2
2023-03-08T05:04:49.186Z,90.2
2023-03-08T05:06:05.383Z,90.3
2023-03-08T05:07:21.578Z,90.2
2023-03-08T05:08:37.775Z,90.2
2023-03-08T05:09:53.970Z,90.1
2023-03-08T05:11:10.166Z,90.3
2023-03-08T05:12:26.362Z,90.3
2023-03-08T05:13:42.797Z,90.5
2023-03-08T05:14:50.000Z,90.6
2023-03-08T05:16:14.209Z,90.5
2023-03-08T05:17:30.162Z,90.7
2023-03-08T05:18:46.358Z,90.7
2023-03-08T05:20:02.554Z,90.8
2023-03-08T05:21:18.750Z,90.9
2023-03-08T05:22:00.000Z,91
2023-03-08T05:22:34.946Z,91
2023-03-08T05:23:51.385Z,90.9
2023-03-08T05:25:06.364Z,90.9
2023-03-08T05:26:21.576Z,91
2023-03-08T05:28:53.968Z,90.7
2023-03-08T05:30:09.190Z,90.9
2023-03-08T05:31:24.655Z,91.2
2023-03-08T05:32:40.598Z,91.2
2023-03-08T05:33:56.794Z,91.1
2023-03-08T05:35:12.990Z,91.1
2023-03-08T05:36:29.186Z,91.1
2023-03-08T05:37:45.382Z,91.1
2023-03-08T05:39:01.818Z,91
2023-03-08T05:40:17.773Z,91.3
2023-03-08T05:41:33.970Z,91.4
2023-03-08T05:42:50.165Z,91.3
2023-03-08T05:44:06.362Z,91.5
2023-03-08T05:45:22.557Z,91.5
2023-03-08T05:46:38.754Z,91.5
2023-03-08T05:47:54.216Z,91.5
2023-03-08T05:49:10.162Z,91.4
2023-03-08T05:50:26.357Z,91.4
2023-03-08T05:51:42.795Z,91.5
2023-03-08T05:52:58.994Z,91.5
2023-03-08T05:54:15.184Z,91.4
2023-03-08T05:55:31.141Z,91.6
2023-03-08T05:56:46.606Z,91.5
2023-03-08T05:58:01.576Z,91.4
2023-03-08T05:59:16.799Z,91.5
2023-03-08T06:00:32.010Z,91.6
2023-03-08T06:01:48.453Z,91.4
2023-03-08T06:03:04.402Z,91.7
2023-03-08T06:04:20.599Z,91.6
2023-03-08T06:05:37.038Z,91.5
2023-03-08T06:06:44.000Z,91.7
2023-03-08T06:08:09.186Z,91.8
2023-03-08T06:09:25.382Z,91.8
2023-03-08T06:10:41.829Z,91.8
2023-03-08T06:11:58.024Z,91.7
2023-03-08T06:13:13.970Z,91.4
2023-03-08T06:13:57.000Z,91.6
2023-03-08T06:14:30.166Z,91.5
2023-03-08T06:15:46.361Z,91.5
2023-03-08T06:17:01.813Z,91.4
2023-03-08T06:18:18.007Z,91.5
2023-03-08T06:20:50.160Z,91.6
2023-03-08T06:22:06.598Z,91.9
2023-03-08T06:23:22.552Z,91.8
2023-03-08T06:24:38.994Z,91.8
2023-03-08T06:25:53.970Z,91.8
2023-03-08T06:27:09.182Z,91.6
2023-03-08T06:28:25.377Z,91.7
2023-03-08T06:29:41.574Z,91.8
2023-03-08T06:30:56.796Z,91.9
2023-03-08T06:32:12.009Z,91.9
2023-03-08T06:33:27.225Z,91.8
2023-03-08T06:34:43.680Z,91.8
2023-03-08T06:35:59.617Z,91.8
2023-03-08T06:37:16.060Z,91.9
2023-03-08T06:38:32.009Z,92
2023-03-08T06:39:48.458Z,91.7
2023-03-08T06:41:04.401Z,91.7
2023-03-08T06:42:20.597Z,91.9
2023-03-08T06:43:36.793Z,91.9
2023-03-08T06:44:53.238Z,91.9
2023-03-08T06:46:09.426Z,91.8
2023-03-08T06:47:25.381Z,91.7
2023-03-08T06:48:41.577Z,91.9
2023-03-08T06:49:57.041Z,91.9
2023-03-08T06:51:13.237Z,91.8
2023-03-08T06:52:29.427Z,91.7
2023-03-08T06:53:45.624Z,91.5
2023-03-08T06:55:01.574Z,91.8
2023-03-08T06:56:18.018Z,91.7
2023-03-08T06:57:33.243Z,91.7
2023-03-08T06:58:48.204Z,91.7
2023-03-08T07:00:04.653Z,91.8
2023-03-08T07:01:20.596Z,91.8
2023-03-08T07:02:36.793Z,91.8
2023-03-08T07:03:53.229Z,91.9
2023-03-08T07:05:09.184Z,91.8
2023-03-08T07:06:25.629Z,91.5
2023-03-08T07:07:41.816Z,91.5
2023-03-08T07:08:57.772Z,91.1
2023-03-08T07:10:14.214Z,91
2023-03-08T07:11:30.164Z,91.2
2023-03-08T07:12:46.614Z,91.4
2023-03-08T07:14:02.556Z,91.3
2023-03-08T07:15:17.770Z,91.1
2023-03-08T07:16:34.218Z,91.2
2023-03-08T07:17:50.405Z,91
2023-03-08T07:19:06.357Z,90.8
2023-03-08T07:20:22.804Z,90.8
2023-03-08T07:21:38.750Z,90.8
2023-03-08T07:22:54.947Z,90.8
2023-03-08T07:24:10.170Z,91
2023-03-08T07:25:25.382Z,90.9
2023-03-08T07:26:40.845Z,90.5
2023-03-08T07:27:55.817Z,90.2
2023-03-08T07:29:12.256Z,90.5
2023-03-08T07:30:28.210Z,90.2
2023-03-08T07:31:44.657Z,90.3
2023-03-08T07:33:00.846Z,90.5
2023-03-08T07:34:08.000Z,90
2023-03-08T07:35:24.000Z,90.1
2023-03-08T07:36:49.437Z,90
2023-03-08T07:38:05.633Z,90
2023-03-08T07:39:12.000Z,89.9
2023-03-08T07:40:37.778Z,89.8
2023-03-08T07:41:54.214Z,89.8
2023-03-08T07:43:10.418Z,89.8
2023-03-08T07:44:25.627Z,89.6
2023-03-08T07:45:41.823Z,89.9
2023-03-08T07:46:57.774Z,89.8
2023-03-08T07:48:05.000Z,90
2023-03-08T07:49:30.166Z,90.1
2023-03-08T07:50:46.362Z,89.9
2023-03-08T07:52:02.557Z,89.2
2023-03-08T07:53:09.000Z,89.8
2023-03-08T07:54:32.992Z,89.9
2023-03-08T07:55:48.215Z,89.9
2023-03-08T07:57:03.426Z,89.5
2023-03-08T07:58:19.623Z,89.7
2023-03-08T07:59:27.000Z,89.7
2023-03-08T08:00:52.266Z,89.6
2023-03-08T08:02:08.210Z,89.6
2023-03-08T08:03:24.407Z,89.4
2023-03-08T08:04:40.602Z,89.7
2023-03-08T08:05:57.049Z,89.7
2023-03-08T08:07:12.994Z,89.3
2023-03-08T08:08:29.190Z,89.1
2023-03-08T08:09:45.625Z,89.6
2023-03-08T08:11:01.826Z,89.5
2023-03-08T08:12:18.020Z,89.5
2023-03-08T08:13:24.000Z,89.7
2023-03-08T08:14:49.186Z,89.2
2023-03-08T08:16:05.626Z,89
2023-03-08T08:17:21.818Z,88.8
2023-03-08T08:18:38.014Z,88.5
2023-03-08T08:19:54.216Z,88.8
2023-03-08T08:21:01.000Z,89.1
2023-03-08T08:22:16.000Z,88.9
2023-03-08T08:23:40.848Z,89
2023-03-08T08:24:57.036Z,88.8
2023-03-08T08:26:12.994Z,88.2
2023-03-08T08:27:29.437Z,88.4
2023-03-08T08:28:44.413Z,88.7
2023-03-08T08:29:59.625Z,88.6
2023-03-08T08:31:07.000Z,88.4
2023-03-08T08:32:32.017Z,88.6
2023-03-08T08:33:48.213Z,88.1
2023-03-08T08:35:04.652Z,87.5
2023-03-08T08:36:11.000Z,88
2023-03-08T08:37:37.048Z,87.8
2023-03-08T08:38:44.000Z,87.5
2023-03-08T08:40:09.436Z,87.8
2023-03-08T08:41:25.638Z,88
2023-03-08T08:42:41.834Z,88.1
2023-03-08T08:43:58.021Z,88
2023-03-08T08:45:14.221Z,87.8
2023-03-08T08:46:29.446Z,87
2023-03-08T08:47:45.625Z,86.8
2023-03-08T08:49:01.840Z,86.3
2023-03-08T08:50:09.000Z,86.2
2023-03-08T08:51:34.228Z,86.8
2023-03-08T08:52:50.424Z,86.7
2023-03-08T08:54:06.368Z,86.8
2023-03-08T08:55:21.590Z,86.9
2023-03-08T08:56:37.041Z,86.6
2023-03-08T08:57:44.000Z,86.3
2023-03-08T08:59:09.195Z,86.3
2023-03-08T09:00:25.638Z,86.3
2023-03-08T09:01:41.829Z,86.1
2023-03-08T09:02:58.020Z,86
2023-03-08T09:04:14.226Z,85.8
2023-03-08T09:05:30.423Z,84.9
2023-03-08T09:06:37.000Z,85.3
2023-03-08T09:07:53.000Z,85.1
2023-03-08T09:09:19.017Z,85.5
2023-03-08T09:10:34.958Z,85.2
2023-03-08T09:11:51.411Z,85.7
2023-03-08T09:13:06.610Z,85.6
2023-03-08T09:14:22.806Z,85.1
2023-03-08T09:15:30.000Z,85.7
2023-03-08T09:16:46.000Z,85.9
2023-03-08T09:18:02.000Z,85.8
2023-03-08T09:19:18.000Z,85.1
2023-03-08T09:20:43.795Z,84.9
2023-03-08T09:21:59.010Z,84.8
2023-03-08T09:23:13.977Z,84.8
2023-03-08T09:24:29.454Z,85
2023-03-08T09:25:45.635Z,84.9
2023-03-08T09:26:51.000Z,84.7
2023-03-08T09:28:08.000Z,84.5
2023-03-08T09:29:33.250Z,84.7
2023-03-08T09:30:40.000Z,84.5
2023-03-08T09:31:56.000Z,84.2
2023-03-08T09:33:21.855Z,84.2
2023-03-08T09:34:37.787Z,83.7
2023-03-08T09:35:53.983Z,83.3
2023-03-08T09:37:10.425Z,82.8
2023-03-08T09:38:26.375Z,82.3
2023-03-08T09:39:42.814Z,82.5
2023-03-08T09:40:50.000Z,82.8
2023-03-08T09:42:15.223Z,82.5
2023-03-08T09:43:30.421Z,82.4
2023-03-08T09:44:46.618Z,82.7
2023-03-08T09:46:02.568Z,82.5
2023-03-08T09:47:19.009Z,82.1
2023-03-08T09:48:26.000Z,82.2
2023-03-08T09:49:51.156Z,82.1
2023-03-08T09:50:57.000Z,81.4
2023-03-08T09:52:21.842Z,82.2
2023-03-08T09:53:37.053Z,82
2023-03-08T09:54:52.269Z,81.4
2023-03-08T09:56:08.467Z,81.5
2023-03-08T09:57:24.662Z,81.8
2023-03-08T09:58:40.870Z,81.7
2023-03-08T09:59:57.062Z,82.1
2023-03-08T10:01:13.004Z,81.6
2023-03-08T10:02:29.448Z,81.8
2023-03-08T10:03:36.000Z,80.5
2023-03-08T10:05:01.592Z,80.4
2023-03-08T10:06:09.000Z,80.6
2023-03-08T10:07:34.229Z,80.7
2023-03-08T10:08:50.181Z,80.4
2023-03-08T10:10:06.377Z,80
2023-03-08T10:11:21.841Z,80.6
2023-03-08T10:12:37.786Z,80
2023-03-08T10:13:45.000Z,78.9
2023-03-08T10:15:10.418Z,79.4
2023-03-08T10:16:26.372Z,79.6
2023-03-08T10:17:33.000Z,80.1
2023-03-08T10:18:50.000Z,80.2
2023-03-08T10:19:38.000Z,80.2
2023-03-08T10:20:14.229Z,78.8
2023-03-08T10:21:29.445Z,79.4
2023-03-08T10:22:44.665Z,79.8
2023-03-08T10:23:59.876Z,80.2
2023-03-08T10:26:32.024Z,79.8
2023-03-08T10:27:48.220Z,79.8
2023-03-08T10:28:55.000Z,80
2023-03-08T10:30:20.863Z,80
2023-03-08T10:31:28.000Z,79.7
2023-03-08T10:32:44.000Z,80
2023-03-08T10:34:00.000Z,80
2023-03-08T10:34:52.000Z,79.4
2023-03-08T10:35:25.395Z,80
2023-03-08T10:36:32.000Z,80.1
2023-03-08T10:37:57.787Z,80.2
2023-03-08T10:39:14.228Z,79.5
2023-03-08T10:41:45.635Z,78.8
2023-03-08T10:43:01.835Z,77.1
2023-03-08T10:44:18.048Z,77.6
2023-03-08T10:45:33.979Z,78.3
2023-03-08T10:46:41.000Z,78.1
2023-03-08T10:47:56.000Z,77.8
2023-03-08T10:49:21.833Z,78.1
2023-03-08T10:50:36.811Z,77.4
2023-03-08T10:51:52.267Z,77.4
2023-03-08T10:52:58.000Z,76.7
2023-03-08T10:54:13.000Z,77.5
2023-03-08T10:55:38.894Z,77.5
2023-03-08T10:56:46.000Z,77.1
2023-03-08T10:58:11.044Z,77
2023-03-08T10:59:24.000Z,77.3
2023-03-08T11:00:34.000Z,77
2023-03-08T11:01:59.882Z,76.9
2023-03-08T11:03:07.000Z,76.5
2023-03-08T11:04:23.000Z,76.5
2023-03-08T11:05:48.221Z,76.9
2023-03-08T11:07:04.417Z,77
2023-03-08T11:08:20.869Z,76.8
2023-03-08T11:09:28.000Z,76.2
2023-03-08T11:10:52.022Z,76.6
2023-03-08T11:11:36.000Z,77
2023-03-08T11:12:08.469Z,76.3
2023-03-08T11:13:24.663Z,76.3
2023-03-08T11:14:40.609Z,77.2
2023-03-08T11:15:56.805Z,77.3
2023-03-08T11:18:20.000Z,77.2
2023-03-08T11:19:35.000Z,76.9
2023-03-08T11:20:27.000Z,76
2023-03-08T11:20:59.631Z,76.8
2023-03-08T11:22:16.075Z,76.9
2023-03-08T11:23:32.022Z,75.7
2023-03-08T11:24:48.458Z,75.6
2023-03-08T11:27:20.861Z,75.3
2023-03-08T11:28:37.049Z,75.7
2023-03-08T11:29:53.242Z,75.3
2023-03-08T11:31:09.197Z,75.6
2023-03-08T11:32:25.641Z,75.2
2023-03-08T11:33:41.588Z,74.9
2023-03-08T11:34:49.000Z,74.8
2023-03-08T11:36:14.236Z,75
2023-03-08T11:37:29.439Z,75.3
2023-03-08T11:38:45.635Z,74.2
2023-03-08T11:39:52.000Z,73.7
2023-03-08T11:40:44.000Z,74.4
2023-03-08T11:41:09.000Z,73.6
2023-03-08T11:42:25.000Z,73.8
2023-03-08T11:43:50.159Z,74.1
2023-03-08T11:45:06.594Z,74
2023-03-08T11:47:37.032Z,75
2023-03-08T11:48:52.004Z,75.6
2023-03-08T11:50:07.214Z,75.3
2023-03-08T11:51:23.648Z,74.2
2023-03-08T11:52:30.000Z,74.8
2023-03-08T11:53:55.795Z,73.8
2023-03-08T11:55:11.989Z,73.8
2023-03-08T11:56:28.183Z,74.3
2023-03-08T11:57:35.000Z,74
2023-03-08T11:59:00.814Z,73.7
2023-03-08T12:00:16.764Z,73.1
2023-03-08T12:01:00.000Z,72.3
2023-03-08T12:01:33.206Z,73.5
2023-03-08T12:02:49.151Z,73.8
2023-03-08T12:04:05.591Z,72.2
2023-03-08T12:05:21.539Z,72.1
2023-03-08T12:07:53.182Z,73.4
2023-03-08T12:09:09.380Z,72
2023-03-08T12:10:16.000Z,73
2023-03-08T12:11:41.522Z,73.7
2023-03-08T12:12:49.000Z,73
2023-03-08T12:14:14.168Z,73.2
2023-03-08T12:15:20.000Z,74.2
2023-03-08T12:16:44.340Z,73.3
2023-03-08T12:17:28.000Z,71.5
2023-03-08T12:18:00.774Z,72.6
2023-03-08T12:19:16.727Z,72.9
2023-03-08T12:20:32.921Z,73.2
2023-03-08T12:21:49.114Z,72.4
2023-03-08T12:24:21.501Z,72.5
2023-03-08T12:25:29.000Z,73.6
2023-03-08T12:26:54.131Z,73.6
2023-03-08T12:28:10.333Z,72.9
2023-03-08T12:29:17.000Z,71.2
2023-03-08T12:30:42.716Z,70.8
2023-03-08T12:31:50.000Z,72.3
2023-03-08T12:33:13.872Z,71.9
2023-03-08T12:34:30.067Z,72.4
2023-03-08T12:35:37.000Z,72
2023-03-08T12:37:02.454Z,72
2023-03-08T12:38:10.000Z,71.9
2023-03-08T12:39:34.842Z,72
2023-03-08T12:40:51.282Z,72.3
2023-03-08T12:42:06.256Z,72.3
2023-03-08T12:43:12.000Z,71.7
2023-03-08T12:44:37.905Z,72.4
2023-03-08T12:52:06.000Z,74.2
2023-03-08T12:53:31.015Z,73.6
2023-03-08T12:54:47.454Z,73.5
2023-03-08T12:56:03.654Z,73.5
2023-03-08T12:57:19.596Z,73.2
2023-03-08T12:58:35.789Z,73.8
2023-03-08T12:59:51.000Z,73.2
2023-03-08T13:00:58.000Z,73.9
2023-03-08T13:02:13.000Z,73.1
2023-03-08T13:03:37.623Z,73.6
2023-03-08T13:04:44.000Z,74.2
2023-03-08T13:06:08.053Z,74.2
2023-03-08T13:07:24.247Z,74.2
2023-03-08T13:08:31.000Z,74
2023-03-08T13:09:56.887Z,74.9
2023-03-08T13:11:04.000Z,76.2
2023-03-08T13:12:20.000Z,76.3
2023-03-08T13:13:45.215Z,76.5
2023-03-08T13:15:01.664Z,76.1
2023-03-08T13:16:17.602Z,76.6
2023-03-08T13:17:33.795Z,76.4
2023-03-08T13:18:49.015Z,76.1
2023-03-08T13:20:04.225Z,76
2023-03-08T13:21:20.419Z,74.4
2023-03-08T13:22:36.612Z,75.9
2023-03-08T13:23:52.806Z,76.5
2023-03-08T13:25:09.249Z,75.5
2023-03-08T13:26:16.000Z,75.5
2023-03-08T13:27:41.629Z,75
2023-03-08T13:28:48.000Z,76.4
2023-03-08T13:30:05.000Z,76.2
2023-03-08T13:31:29.968Z,76.7
2023-03-08T13:32:45.441Z,76.1
2023-03-08T13:34:00.398Z,75.9
2023-03-08T13:35:16.591Z,76.8
2023-03-08T13:36:32.785Z,76.5
2023-03-08T13:37:48.978Z,76.2
2023-03-08T13:39:05.172Z,76.9
2023-03-08T13:40:12.000Z,76.7
2023-03-08T13:41:37.559Z,77.1
2023-03-08T13:42:53.752Z,76.6
2023-03-08T13:44:09.946Z,77
2023-03-08T13:45:26.381Z,78
2023-03-08T13:46:42.586Z,78.3
2023-03-08T13:47:58.772Z,78.4
2023-03-08T13:49:14.720Z,78.6
2023-03-08T13:50:30.178Z,78.8
2023-03-08T13:51:46.373Z,78.6
2023-03-08T13:53:02.572Z,79.2
2023-03-08T13:54:09.000Z,79.5
2023-03-08T13:55:26.000Z,79.9
2023-03-08T13:56:42.000Z,79.6
2023-03-08T13:57:58.000Z,79.4
2023-03-08T13:59:22.312Z,79.8
2023-03-08T14:00:37.779Z,79.2
2023-03-08T14:01:52.985Z,79.2
2023-03-08T14:02:59.000Z,79.5
2023-03-08T14:04:15.000Z,79.7
2023-03-08T14:05:31.000Z,80
2023-03-08T14:06:56.781Z,79.9
2023-03-08T14:08:12.971Z,80.1
2023-03-08T14:09:29.159Z,80.3
2023-03-08T14:10:36.000Z,80.8
2023-03-08T14:11:52.000Z,80.6
2023-03-08T14:13:17.745Z,80.3
2023-03-08T14:14:33.696Z,80.3
2023-03-08T14:15:41.000Z,79.7
2023-03-08T14:16:57.000Z,80.2
2023-03-08T14:18:13.000Z,80.3
2023-03-08T14:19:28.000Z,80.5
2023-03-08T14:20:45.000Z,80.5
2023-03-08T14:22:10.121Z,80.8
2023-03-08T14:22:52.000Z,81.8
2023-03-08T14:23:26.321Z,80.5
2023-03-08T14:24:42.505Z,81
2023-03-08T14:25:49.000Z,81.3
2023-03-08T14:27:06.000Z,81.6
2023-03-08T14:29:36.000Z,81.4
2023-03-08T14:31:00.541Z,81.7
2023-03-08T14:32:06.000Z,81.6
2023-03-08T14:33:23.000Z,81.4
2023-03-08T14:34:48.148Z,81.9
2023-03-08T14:35:54.000Z,82
2023-03-08T14:37:18.572Z,81.9
2023-03-08T14:38:34.766Z,82.5
2023-03-08T14:39:50.715Z,82.8
2023-03-08T14:40:58.000Z,82.8
2023-03-08T14:42:14.000Z,82.6
2023-03-08T14:43:39.295Z,83.4
2023-03-08T14:44:46.000Z,83.8
2023-03-08T14:46:11.682Z,83.9
2023-03-08T14:47:19.000Z,83.9
2023-03-08T14:48:35.000Z,83.8
2023-03-08T14:49:51.000Z,84.1
2023-03-08T14:51:16.700Z,84.2
2023-03-08T14:52:32.651Z,84
2023-03-08T14:53:39.000Z,84.3
2023-03-08T14:55:04.054Z,84.4
2023-03-08T14:56:11.000Z,84.5
2023-03-08T14:57:27.000Z,84.6
2023-03-08T14:58:18.000Z,85.5
2023-03-08T14:58:44.000Z,85.5
2023-03-08T14:59:34.000Z,85.6
2023-03-08T15:00:09.069Z,85.6
2023-03-08T15:01:25.270Z,85.7
2023-03-08T15:02:31.000Z,85.5
2023-03-08T15:06:27.120Z,85.7
2023-03-08T15:07:09.000Z,85.7
2023-03-08T15:07:42.087Z,85.7
2023-03-08T15:08:58.280Z,85.6
2023-03-08T15:10:14.722Z,85.8
2023-03-08T15:11:30.913Z,85.8
2023-03-08T15:14:03.055Z,86.1
2023-03-08T15:15:10.000Z,86
2023-03-08T15:16:35.443Z,86.1
2023-03-08T15:17:43.000Z,86
2023-03-08T15:19:08.082Z,86.4
2023-03-08T15:20:24.271Z,86.4
2023-03-08T15:21:40.465Z,86.6
2023-03-08T15:22:47.000Z,86.7
2023-03-08T15:24:11.885Z,86.6
2023-03-08T15:25:28.067Z,86.8
2023-03-08T15:26:44.008Z,86.4
2023-03-08T15:28:00.454Z,86.7
2023-03-08T15:29:16.396Z,86.8
2023-03-08T15:30:32.590Z,87.3
2023-03-08T15:31:40.000Z,87.5
2023-03-08T15:33:04.003Z,87.4
2023-03-08T15:34:19.213Z,87
2023-03-08T15:35:35.406Z,87.2
2023-03-08T15:36:51.600Z,87.3
2023-03-08T15:38:07.794Z,87
2023-03-08T15:39:23.987Z,87
2023-03-08T15:40:40.423Z,87.2
2023-03-08T15:41:56.374Z,87.3
2023-03-08T15:43:12.568Z,87.2
2023-03-08T15:44:28.762Z,86.7
2023-03-08T15:45:36.000Z,86.8
2023-03-08T15:46:52.000Z,86.8
2023-03-08T15:48:08.000Z,86.8
2023-03-08T15:49:00.000Z,86.9
2023-03-08T15:49:33.782Z,86.9
2023-03-08T15:50:48.746Z,86.7
2023-03-08T15:52:04.940Z,86.9
2023-03-08T15:53:21.134Z,86.8
2023-03-08T15:55:53.521Z,86.8
2023-03-08T15:57:09.960Z,86.9
2023-03-08T15:58:17.000Z,86.9
2023-03-08T15:59:41.378Z,87
2023-03-08T16:00:47.000Z,87
2023-03-08T16:02:02.000Z,88.2
2023-03-08T16:03:19.000Z,88.4
2023-03-08T16:04:34.000Z,88.4
2023-03-08T16:05:50.000Z,88.3
2023-03-08T16:07:15.351Z,88.1
2023-03-08T16:08:22.000Z,87.9
2023-03-08T16:09:47.738Z,88.4
2023-03-08T16:10:55.000Z,89
2023-03-08T16:12:11.000Z,89.2
2023-03-08T16:13:36.319Z,89.2
2023-03-08T16:14:52.756Z,88.7
2023-03-08T16:16:00.000Z,89.1
2023-03-08T16:17:25.140Z,89
2023-03-08T16:18:41.095Z,89.4
2023-03-08T16:19:57.288Z,89.5
2023-03-08T16:21:13.482Z,89.7
2023-03-08T16:22:20.000Z,89.5
2023-03-08T16:23:36.000Z,90.3
2023-03-08T16:24:52.000Z,90.3
2023-03-08T16:26:08.000Z,90.7
2023-03-08T16:27:33.467Z,91.1
2023-03-08T16:28:49.661Z,90.9
2023-03-08T16:29:56.000Z,91.3
2023-03-08T16:31:11.000Z,91.4
2023-03-08T16:32:27.000Z,91.2
2023-03-08T16:33:52.479Z,91.3
2023-03-08T16:35:08.672Z,91.1
2023-03-08T16:36:16.000Z,91.3
2023-03-08T16:37:41.060Z,91.5
2023-03-08T16:38:48.000Z,91.7
2023-03-08T16:40:13.447Z,91.5
2023-03-08T16:41:29.891Z,91.4
2023-03-08T16:42:46.079Z,91.4
2023-03-08T16:44:02.279Z,91.3
2023-03-08T16:45:09.000Z,91.3
2023-03-08T16:46:34.416Z,91.3
2023-03-08T16:47:49.874Z,91.3
2023-03-08T16:49:05.819Z,91.3
2023-03-08T16:50:13.000Z,91.2
2023-03-08T16:51:29.000Z,91.3
2023-03-08T16:52:54.644Z,91.4
2023-03-08T16:54:01.000Z,91.4
2023-03-08T16:55:27.036Z,91
2023-03-08T16:56:42.008Z,90.9
2023-03-08T16:57:48.000Z,90.8
2023-03-08T16:59:04.000Z,90.7
2023-03-08T17:00:19.000Z,90.9
2023-03-08T17:01:43.843Z,91
2023-03-08T17:03:00.036Z,91.3
2023-03-08T17:04:16.230Z,91.3
2023-03-08T17:05:32.424Z,91.5
2023-03-08T17:06:39.000Z,91.7